Latest Weather Observations for West Wyalong

IDN60801

Issued at 8:12 pm EST Tuesday 19 June 2018 (issued every 10 minutes, with the page automatically refreshed every 10 minutes)

About weather observations | Map of weather stations | Latest weather observations for NSW | Other Formats
Station Details ID: 050017 Name: WEST WYALONG AIRPORT AWS Lat: -33.94 Lon: 147.20 Height: 257.0 m
Data from the previous 72 hours. | See also: Recent months at West Wyalong
Date/Time
EST
Temp
°C
App
Temp
°C
Dew
Point
°C
Rel
Hum
%
Delta-T
°C
Wind Press
QNH
hPa
Press
MSL
hPa
Rain since
9am
mm
Dir  Spd
km/h
Gust
km/h
Spd
kts
Gust
kts
19/08:00pm 7.6 4.9 3.8 77 1.6 WSW 7 9 4 5 1027.7 1028.1 0.0
19/07:30pm 8.3 5.3 4.1 75 1.9 WSW 9 11 5 6 1027.2 1027.6 0.0
19/07:00pm 8.2 5.2 4.0 75 1.8 SW 9 13 5 7 1026.7 1027.0 0.0
19/06:30pm 8.8 5.4 4.2 73 2.0 SW 11 13 6 7 1026.5 1026.8 0.0
19/06:00pm 8.6 5.9 3.8 72 2.1 WSW 7 9 4 5 1026.1 1026.4 0.0
19/05:30pm 10.5 7.8 3.5 62 3.1 S 7 9 4 5 1025.9 1026.2 0.0
19/05:00pm 12.1 9.0 3.6 56 3.8 SSW 9 13 5 7 1026.2 1026.5 0.0
19/04:30pm 13.4 9.0 2.9 49 4.7 SSW 15 17 8 9 1026.3 1026.6 0.0
19/04:00pm 14.1 10.8 2.7 46 5.1 S 9 15 5 8 1026.3 1026.6 0.0
19/03:30pm 14.1 10.3 2.0 44 5.4 SSW 11 15 6 8 1026.1 1026.4 0.0
19/03:00pm 14.2 11.0 2.8 46 5.1 SSW 9 17 5 9 1026.0 1026.3 0.0
19/02:30pm 14.1 10.4 2.4 45 5.2 S 11 17 6 9 1025.9 1026.2 0.0
19/02:00pm 13.9 9.2 0.9 41 5.6 SSE 15 20 8 11 1025.8 1026.1 0.0
19/01:30pm 13.9 9.2 1.2 42 5.5 SE 15 24 8 13 1025.7 1026.0 0.0
19/01:00pm 13.8 9.5 3.0 48 4.9 SE 15 20 8 11 1026.1 1026.4 0.0
19/12:30pm 13.2 8.6 3.6 52 4.4 ESE 17 24 9 13 1026.3 1026.6 0.0
19/12:00pm 12.8 8.2 5.5 61 3.4 SE 19 24 10 13 1026.5 1026.8 0.0
19/11:30am 11.6 7.5 4.1 60 3.4 SE 15 19 8 10 1027.0 1027.3 0.0
19/11:00am 10.6 7.0 4.9 68 2.6 SE 13 17 7 9 1027.3 1027.7 0.0
19/10:30am 9.6 5.4 3.6 66 2.7 S 15 19 8 10 1027.7 1028.1 0.0
19/10:00am 8.5 4.6 3.4 70 2.2 SSE 13 17 7 9 1027.9 1028.3 0.0
19/09:30am 7.4 4.4 4.0 79 1.5 SW 9 13 5 7 1027.7 1028.1 0.0
19/09:00am 5.3 2.1 3.3 87 0.8 SSW 9 13 5 7 1027.2 1027.6 0.2
19/08:30am 4.8 1.2 2.8 87 0.8 SW 11 15 6 8 1027.1 1027.4 0.2
19/08:00am 3.5 -0.2 2.5 93 0.4 WSW 11 15 6 8 1026.6 1026.9 0.2
19/07:30am 2.2 -1.3 1.3 94 0.3 SW 9 11 5 6 1026.1 1026.4 0.0
19/07:00am 2.9 -0.5 1.9 93 0.4 WSW 9 13 5 7 1025.8 1026.1 0.0
19/06:30am 2.9 -0.5 1.9 93 0.4 SW 9 11 5 6 1025.6 1025.9 0.0
19/06:00am 3.4 -0.3 2.5 94 0.4 WSW 11 13 6 7 1025.2 1025.5 0.0
19/05:30am 2.8 -0.6 1.9 94 0.4 SW 9 11 5 6 1024.5 1024.9 0.0
19/05:00am 3.4 -0.2 2.7 95 0.3 SW 11 13 6 7 1024.4 1024.8 0.0
19/04:30am 3.2 -0.1 2.5 95 0.3 SW 9 11 5 6 1024.2 1024.6 0.0
19/04:00am 3.8 -0.5 3.1 95 0.3 SW 15 17 8 9 1024.4 1024.8 0.0
19/03:30am 4.2 -0.4 3.5 95 0.3 SW 17 20 9 11 1024.5 1024.9 0.0
19/03:00am 4.5 0.2 3.5 93 0.4 SW 15 19 8 10 1024.5 1024.9 0.0
19/02:30am 5.1 0.5 3.8 91 0.6 WSW 17 22 9 12 1024.3 1024.7 0.0
19/02:00am 5.0 1.2 3.7 91 0.5 SW 13 17 7 9 1024.5 1024.9 0.0
19/01:30am 5.6 1.8 3.9 89 0.7 SW 13 17 7 9 1024.4 1024.8 0.0
19/01:00am 6.3 1.2 4.3 87 0.9 WSW 20 26 11 14 1024.2 1024.6 0.0
19/12:30am 6.4 1.9 4.4 87 0.9 SW 17 20 9 11 1024.3 1024.7 0.0
19/12:00am 6.8 2.4 4.5 85 1.0 WSW 17 20 9 11 1024.2 1024.6 0.0
 
Date/Time
EST
Temp
°C
App
Temp
°C
Dew
Point
°C
Rel
Hum
%
Delta-T
°C
Wind Press
QNH
hPa
Press
MSL
hPa
Rain since
9am
mm
Dir  Spd
km/h
Gust
km/h
Spd
kts
Gust
kts
18/11:30pm 6.9 3.3 4.9 87 0.9 WSW 13 17 7 9 1024.3 1024.7 0.0
18/11:00pm 7.1 3.5 5.1 87 0.9 WSW 13 15 7 8 1024.6 1025.0 0.0
18/10:30pm 7.8 4.0 5.6 86 1.0 SW 15 20 8 11 1024.5 1024.9 0.0
18/10:00pm 8.1 4.3 5.9 86 1.0 WSW 15 20 8 11 1024.3 1024.7 0.0
18/09:30pm 7.7 4.3 5.7 87 0.9 WSW 13 17 7 9 1024.1 1024.5 0.0
18/09:00pm 7.6 4.1 5.4 86 1.0 WSW 13 15 7 8 1024.0 1024.4 0.0
18/08:30pm 8.3 4.5 5.6 83 1.2 WSW 15 19 8 10 1023.9 1024.3 0.0
18/08:00pm 8.3 4.8 5.4 82 1.3 WSW 13 15 7 8 1023.8 1024.1 0.0
18/07:30pm 8.8 4.9 5.5 80 1.5 SW 15 17 8 9 1023.7 1024.0 0.0
18/07:00pm 9.2 5.8 5.8 79 1.6 WSW 13 17 7 9 1023.7 1024.0 0.0
18/06:30pm 9.7 5.6 6.1 78 1.7 WSW 17 20 9 11 1023.5 1023.8 0.0
18/06:00pm 9.8 6.6 6.7 81 1.5 WSW 13 17 7 9 1023.3 1023.6 0.0
18/05:30pm 10.4 7.1 6.2 75 2.0 SW 13 15 7 8 1023.1 1023.4 0.0
18/05:00pm 11.4 7.3 6.1 70 2.5 SW 17 24 9 13 1023.0 1023.3 0.0
18/04:30pm 11.9 6.8 5.8 66 2.9 SW 22 32 12 17 1022.9 1023.2 0.0
18/04:00pm 12.3 7.8 6.1 66 2.9 SSW 19 26 10 14 1022.7 1023.0 0.0
18/03:30pm 13.1 8.4 6.2 63 3.3 SSW 20 28 11 15 1022.5 1022.8 0.0
18/03:00pm 13.1 8.1 6.5 64 3.2 SW 22 30 12 16 1022.6 1022.9 0.0
18/02:30pm 13.2 8.2 6.5 64 3.3 SW 22 30 12 16 1022.5 1022.8 0.0
18/02:00pm 12.9 7.5 6.5 65 3.1 SW 24 32 13 17 1022.4 1022.7 0.0
18/01:30pm 12.5 8.0 6.8 68 2.8 SSW 20 26 11 14 1022.4 1022.7 0.0
18/01:00pm 12.5 8.0 6.8 68 2.8 SW 20 26 11 14 1022.7 1023.0 0.0
18/12:30pm 11.4 6.8 6.7 73 2.3 SW 20 28 11 15 1022.9 1023.2 0.0
18/12:00pm 10.7 5.7 6.6 76 1.9 SW 22 28 12 15 1023.3 1023.6 0.0
18/11:30am 10.2 4.9 6.7 79 1.7 SW 24 30 13 16 1023.6 1023.9 0.0
18/11:00am 9.8 4.4 6.5 80 1.6 SW 24 32 13 17 1023.4 1023.7 0.0
18/10:30am 9.2 4.2 6.3 82 1.4 SSW 22 33 12 18 1023.2 1023.5 0.0
18/10:00am 8.7 2.5 6.2 84 1.2 SSW 28 35 15 19 1023.0 1023.3 0.0
18/09:30am 8.2 2.7 6.0 86 1.0 SW 24 32 13 17 1022.7 1023.0 0.0
18/09:00am 7.8 2.3 5.8 87 0.9 SSW 24 33 13 18 1022.3 1022.6 1.6
18/08:30am 7.5 2.7 5.8 89 0.8 SSW 20 26 11 14 1022.0 1022.3 1.6
18/08:00am 7.2 2.4 5.5 89 0.8 SSW 20 32 11 17 1021.6 1021.9 1.6
18/07:30am 7.2 2.6 5.7 90 0.7 SSW 19 26 10 14 1021.2 1021.5 1.6
18/07:00am 7.2 2.4 5.7 90 0.7 SSW 20 30 11 16 1020.9 1021.3 1.6
18/06:30am 7.3 2.2 5.8 90 0.7 SSW 22 30 12 16 1020.7 1021.1 1.6
18/06:00am 7.4 2.7 5.9 90 0.7 SSW 20 33 11 18 1020.8 1021.2 1.6
18/05:30am 7.5 2.4 5.8 89 0.8 SSW 22 32 12 17 1020.5 1020.8 1.6
18/05:00am 7.5 1.6 5.8 89 0.8 SSW 26 35 14 19 1020.1 1020.4 1.6
18/04:30am 7.6 1.7 5.9 89 0.8 SSW 26 37 14 20 1020.1 1020.4 1.6
18/04:00am 7.8 1.9 5.9 88 0.9 SSW 26 35 14 19 1020.0 1020.3 1.6
18/03:30am 8.0 2.5 6.0 87 0.9 SSW 24 32 13 17 1019.8 1020.1 1.6
18/03:00am 8.2 3.5 6.0 86 1.0 SSW 20 33 11 18 1019.6 1019.9 1.6
18/02:30am 8.3 3.3 6.3 87 0.9 SW 22 33 12 18 1019.3 1019.6 1.6
18/02:00am 8.4 3.0 6.4 87 0.9 SW 24 37 13 20 1019.3 1019.6 1.6
18/01:30am 8.4 3.8 6.7 89 0.8 SW 20 26 11 14 1019.2 1019.5 1.6
18/01:00am 8.4 3.8 6.7 89 0.8 WSW 20 32 11 17 1019.0 1019.3 1.6
18/12:30am 8.6 3.3 6.9 89 0.8 SW 24 33 13 18 1018.9 1019.2 1.6
18/12:00am 8.7 3.4 6.8 88 0.9 WSW 24 33 13 18 1018.8 1019.1 1.6
 
Date/Time
EST
Temp
°C
App
Temp
°C
Dew
Point
°C
Rel
Hum
%
Delta-T
°C
Wind Press
QNH
hPa
Press
MSL
hPa
Rain since
9am
mm
Dir  Spd
km/h
Gust
km/h
Spd
kts
Gust
kts
17/11:30pm 8.6 3.7 6.9 89 0.8 WSW 22 30 12 16 1018.7 1019.0 1.6
17/11:00pm 8.7 2.7 7.0 89 0.8 WSW 28 35 15 19 1018.8 1019.1 1.6
17/10:30pm 8.6 2.5 6.7 88 0.9 WSW 28 39 15 21 1018.6 1018.9 1.6
17/10:00pm 8.7 2.6 6.8 88 0.9 WSW 28 37 15 20 1018.3 1018.6 1.6
17/09:30pm 8.7 2.6 6.8 88 0.9 WSW 28 39 15 21 1018.2 1018.5 1.6
17/09:00pm 8.9 2.5 6.9 87 0.9 WSW 30 44 16 24 1018.2 1018.5 1.6
17/08:30pm 8.7 2.3 7.0 89 0.8 WSW 30 41 16 22 1018.1 1018.4 1.6
17/08:00pm 8.7 2.3 7.0 89 0.8 WSW 30 44 16 24 1017.7 1018.0 1.6
17/07:30pm 8.5 2.9 7.0 90 0.7 WSW 26 35 14 19 1017.8 1018.1 1.6
17/07:00pm 8.5 2.5 7.0 90 0.7 W 28 35 15 19 1017.6 1017.9 1.6
17/06:30pm 8.2 2.2 7.0 92 0.6 W 28 35 15 19 1017.3 1017.5 1.6
17/06:00pm 8.2 1.7 6.7 90 0.7 W 30 46 16 25 1017.1 1017.3 1.4
17/05:53pm 8.3 2.3 6.9 91 0.7 W 28 46 15 25 1017.2 1017.4 1.4
17/05:30pm 8.4 2.4 7.2 92 0.6 WSW 28 41 15 22 1017.1 1017.3 1.4
17/05:00pm 8.4 3.1 6.7 89 0.8 W 24 33 13 18 1016.7 1017.0 1.2
17/04:30pm 8.3 3.3 6.6 89 0.8 WNW 22 32 12 17 1016.5 1016.8 0.4
17/04:00pm 8.3 3.7 6.4 88 0.9 WNW 20 28 11 15 1016.5 1016.8 0.2
17/03:30pm 7.8 3.2 6.6 92 0.6 WNW 20 30 11 16 1016.6 1016.9 0.2
17/03:00pm 7.5 2.1 6.4 93 0.5 W 24 32 13 17 1016.6 1016.9 0.2
17/02:30pm 7.4 2.0 6.2 92 0.6 W 24 35 13 19 1016.5 1016.8 0.2
17/02:00pm 7.2 1.3 6.0 92 0.5 W 26 32 14 17 1016.4 1016.7 0.2
17/01:30pm 7.0 1.5 5.9 93 0.5 W 24 35 13 19 1016.7 1017.0 0.2
17/01:00pm 6.6 0.7 5.6 93 0.5 W 26 37 14 20 1016.9 1017.2 0.2
17/12:30pm 6.3 -0.1 5.3 93 0.4 W 28 37 15 20 1017.2 1017.4 0.2
17/12:00pm 6.3 0.7 5.3 93 0.4 W 24 33 13 18 1017.4 1017.7 0.2
17/11:30am 6.0 0.7 5.1 94 0.4 W 22 32 12 17 1017.9 1018.2 0.2
17/11:00am 5.9 0.6 5.0 94 0.4 W 22 28 12 15 1018.1 1018.4 0.2
17/10:30am 5.6 -0.2 4.6 93 0.4 W 24 33 13 18 1018.2 1018.5 0.0
17/10:00am 5.6 -0.1 4.7 94 0.4 W 24 37 13 20 1018.2 1018.5 0.0
17/09:30am 5.4 0.4 4.5 94 0.4 W 20 30 11 16 1017.8 1018.1 0.0
17/09:00am 5.3 -0.2 4.0 91 0.6 W 22 28 12 15 1017.5 1017.8 5.4
17/08:30am 5.0 -0.2 3.8 92 0.5 W 20 28 11 15 1017.2 1017.4 5.4
17/08:00am 5.0 -0.6 3.5 90 0.6 W 22 32 12 17 1017.1 1017.3 5.4
17/07:30am 4.9 0.2 2.9 87 0.8 W 17 24 9 13 1016.7 1017.0 5.4
17/07:00am 4.7 -1.0 3.0 89 0.7 W 22 30 12 16 1016.7 1017.0 5.4
17/06:30am 4.4 -0.9 3.2 92 0.5 W 20 28 11 15 1016.4 1016.7 5.4
17/06:00am 4.8 -0.7 4.1 95 0.3 W 22 32 12 17 1016.4 1016.7 5.4
17/05:30am 4.9 -0.6 4.2 95 0.3 W 22 28 12 15 1016.2 1016.5 5.2
17/05:00am 5.1 -1.2 3.6 90 0.6 W 26 35 14 19 1016.1 1016.4 5.2
17/04:30am 5.3 -0.6 3.8 90 0.6 WSW 24 35 13 19 1016.0 1016.3 5.2
17/04:00am 5.6 -1.1 3.4 86 0.9 W 28 37 15 20 1016.1 1016.4 5.2
17/03:30am 5.9 0.4 4.1 88 0.8 W 22 28 12 15 1016.1 1016.4 5.2
17/03:00am 6.2 1.1 3.9 85 1.0 W 20 28 11 15 1016.1 1016.4 5.2
17/02:30am 6.0 1.8 4.0 87 0.9 WNW 15 20 8 11 1016.1 1016.4 5.2
17/02:00am 5.5 2.1 4.0 90 0.6 NW 11 15 6 8 1016.2 1016.5 5.2
17/01:30am 5.1 1.6 3.6 90 0.6 NW 11 15 6 8 1016.2 1016.5 5.2
17/01:00am 4.9 1.9 3.9 93 0.4 NNW 9 11 5 6 1016.4 1016.7 5.2
17/12:30am 5.0 1.9 3.8 92 0.5 NNW 9 13 5 7 1016.5 1016.8 5.2
17/12:00am 5.4 2.4 4.1 91 0.6 NNW 9 13 5 7 1016.6 1016.9 5.2
 
Date/Time
EST
Temp
°C
App
Temp
°C
Dew
Point
°C
Rel
Hum
%
Delta-T
°C
Wind Press
QNH
hPa
Press
MSL
hPa
Rain since
9am
mm
Dir  Spd
km/h
Gust
km/h
Spd
kts
Gust
kts
16/11:30pm 5.4 2.7 3.9 90 0.6 NNW 7 11 4 6 1016.7 1017.0 5.0
16/11:00pm 5.3 2.2 3.8 90 0.6 NNW 9 13 5 7 1017.2 1017.4 5.0
16/10:30pm 5.7 2.6 3.7 87 0.9 NW 9 11 5 6 1017.2 1017.4 5.0
16/10:00pm 5.7 2.6 3.5 86 0.9 WNW 9 11 5 6 1017.3 1017.5 5.0
16/09:30pm 6.2 2.4 4.0 86 1.0 W 13 19 7 10 1017.3 1017.5 5.0
16/09:00pm 6.6 2.5 4.3 85 1.0 W 15 19 8 10 1017.4 1017.7 5.0
16/08:30pm 7.1 3.1 4.8 85 1.0 WNW 15 20 8 11 1017.4 1017.7 5.0

Other Formats:

Comma delimited format used in spreadsheet applications
http://www.bom.gov.au/fwo/IDN60801/IDN60801.95709.axf

JavaScript Object Notation format (JSON) in row-major order
http://www.bom.gov.au/fwo/IDN60801/IDN60801.95709.json